Airport View

Enter AWOS ICAO identifier for current METAR.

ex. KFNL

KFNL 191256Z AUTO 36006KT 9SM -SN OVC031 M11/M14 A2992 RMK AO2 SLP190 P0000 T11111139 FZRANO

19 Feb 2019 13:17

Frequency: 135.075

Phone: 970-669-9187

Other Area AWOS: KGXY - KLMO - KEIK - KBDU

TAF KBJC 191158Z 1912/2012 02006KT 6SM -SN SCT012 OVC025 TEMPO 1912/1915 3SM -SN BKN012 FM192000 05006KT P6SM BKN022 OVC050 PROB30 1922/2002 4SM -SN BKN018 FM200200 VRB04KT P6SM -SN SCT008 OVC020 PROB30 2002/2006 4SM -SN BKN008 FM200700 33004KT P6SM SCT015 OVC030 FM200900 27006KT P6SM FEW020 SCT100